sensor_id;sensor_type;location;lat;lon;timestamp;pressure;altitude;pressure_sealevel;temperature;humidity
64632;BME280;58358;50.936;0.246;2023-02-10T00:00:51;103070.59;;;4.08;67.22
64632;BME280;58358;50.936;0.246;2023-02-10T00:03:17;103072.75;;;3.85;67.23
64632;BME280;58358;50.936;0.246;2023-02-10T00:05:42;103072.97;;;4.56;64.41
64632;BME280;58358;50.936;0.246;2023-02-10T00:08:08;103075.00;;;4.14;62.77
64632;BME280;58358;50.936;0.246;2023-02-10T00:10:34;103082.96;;;4.13;63.57
64632;BME280;58358;50.936;0.246;2023-02-10T00:12:58;103082.55;;;3.64;66.21
64632;BME280;58358;50.936;0.246;2023-02-10T00:15:23;103077.04;;;4.63;61.95
64632;BME280;58358;50.936;0.246;2023-02-10T00:17:48;103073.13;;;3.74;63.58
64632;BME280;58358;50.936;0.246;2023-02-10T00:20:14;103071.79;;;4.02;61.46
64632;BME280;58358;50.936;0.246;2023-02-10T00:22:40;103075.35;;;4.05;62.51
64632;BME280;58358;50.936;0.246;2023-02-10T00:25:05;103073.39;;;4.77;60.14
64632;BME280;58358;50.936;0.246;2023-02-10T00:27:30;103070.23;;;4.39;60.25
64632;BME280;58358;50.936;0.246;2023-02-10T00:29:55;103067.32;;;3.88;61.66
64632;BME280;58358;50.936;0.246;2023-02-10T00:32:21;103065.23;;;4.01;62.07
64632;BME280;58358;50.936;0.246;2023-02-10T00:34:48;103062.17;;;3.74;62.80
64632;BME280;58358;50.936;0.246;2023-02-10T00:37:14;103062.46;;;4.09;59.97
64632;BME280;58358;50.936;0.246;2023-02-10T00:39:38;103061.95;;;3.71;60.04
64632;BME280;58358;50.936;0.246;2023-02-10T00:42:02;103056.16;;;2.24;63.45
64632;BME280;58358;50.936;0.246;2023-02-10T00:44:27;103056.27;;;1.94;67.04
64632;BME280;58358;50.936;0.246;2023-02-10T00:46:54;103047.83;;;3.05;63.25
64632;BME280;58358;50.936;0.246;2023-02-10T00:49:18;103048.15;;;3.76;60.76
64632;BME280;58358;50.936;0.246;2023-02-10T00:51:44;103047.83;;;3.62;60.77
64632;BME280;58358;50.936;0.246;2023-02-10T00:54:11;103046.77;;;2.90;62.27
64632;BME280;58358;50.936;0.246;2023-02-10T00:56:35;103051.74;;;1.24;66.86
64632;BME280;58358;50.936;0.246;2023-02-10T00:59:00;103059.32;;;0.14;72.05
64632;BME280;58358;50.936;0.246;2023-02-10T01:01:25;103052.42;;;2.97;64.40
64632;BME280;58358;50.936;0.246;2023-02-10T01:03:50;103053.27;;;3.72;60.89
64632;BME280;58358;50.936;0.246;2023-02-10T01:06:17;103054.30;;;3.27;61.39
64632;BME280;58358;50.936;0.246;2023-02-10T01:08:42;103054.18;;;3.09;61.47
64632;BME280;58358;50.936;0.246;2023-02-10T01:11:10;103060.46;;;2.77;61.55
64632;BME280;58358;50.936;0.246;2023-02-10T01:13:34;103060.65;;;2.87;61.25
64632;BME280;58358;50.936;0.246;2023-02-10T01:15:58;103054.88;;;2.89;60.24
64632;BME280;58358;50.936;0.246;2023-02-10T01:18:23;103052.96;;;3.06;59.81
64632;BME280;58358;50.936;0.246;2023-02-10T01:20:48;103064.67;;;2.22;61.04
64632;BME280;58358;50.936;0.246;2023-02-10T01:23:14;103072.95;;;2.26;61.80
64632;BME280;58358;50.936;0.246;2023-02-10T01:25:39;103075.74;;;-0.27;68.21
64632;BME280;58358;50.936;0.246;2023-02-10T01:28:06;103070.02;;;1.58;63.67
64632;BME280;58358;50.936;0.246;2023-02-10T01:30:31;103067.78;;;1.82;62.68
64632;BME280;58358;50.936;0.246;2023-02-10T01:32:57;103066.13;;;1.91;63.05
64632;BME280;58358;50.936;0.246;2023-02-10T01:35:21;103059.15;;;3.05;59.72
64632;BME280;58358;50.936;0.246;2023-02-10T01:37:47;103061.02;;;3.01;59.84
64632;BME280;58358;50.936;0.246;2023-02-10T01:40:14;103061.41;;;2.82;59.03
64632;BME280;58358;50.936;0.246;2023-02-10T01:42:38;103063.33;;;2.52;59.44
64632;BME280;58358;50.936;0.246;2023-02-10T01:45:14;103070.63;;;1.93;60.29
64632;BME280;58358;50.936;0.246;2023-02-10T01:47:29;103074.02;;;2.00;60.77
64632;BME280;58358;50.936;0.246;2023-02-10T01:49:54;103069.68;;;2.00;61.17
64632;BME280;58358;50.936;0.246;2023-02-10T01:52:23;103062.34;;;2.00;60.66
64632;BME280;58358;50.936;0.246;2023-02-10T01:54:48;103062.83;;;2.25;59.83
64632;BME280;58358;50.936;0.246;2023-02-10T01:57:11;103068.76;;;-0.60;67.08
64632;BME280;58358;50.936;0.246;2023-02-10T01:59:37;103062.84;;;0.48;65.26
64632;BME280;58358;50.936;0.246;2023-02-10T02:02:03;103058.42;;;1.19;62.88
64632;BME280;58358;50.936;0.246;2023-02-10T02:04:27;103055.43;;;1.94;60.37
64632;BME280;58358;50.936;0.246;2023-02-10T02:06:53;103058.29;;;2.16;59.50
64632;BME280;58358;50.936;0.246;2023-02-10T02:09:19;103060.61;;;2.13;59.24
64632;BME280;58358;50.936;0.246;2023-02-10T02:11:51;103064.24;;;2.55;57.77
64632;BME280;58358;50.936;0.246;2023-02-10T02:14:23;103068.27;;;2.57;58.10
64632;BME280;58358;50.936;0.246;2023-02-10T02:16:45;103067.25;;;2.19;58.84
64632;BME280;58358;50.936;0.246;2023-02-10T02:19:07;103066.02;;;2.19;58.53
64632;BME280;58358;50.936;0.246;2023-02-10T02:26:30;103064.39;;;0.39;64.09
64632;BME280;58358;50.936;0.246;2023-02-10T02:28:53;103065.96;;;-0.13;63.36
64632;BME280;58358;50.936;0.246;2023-02-10T02:33:39;103065.61;;;1.64;60.73
64632;BME280;58358;50.936;0.246;2023-02-10T02:36:04;103067.02;;;1.06;62.23
64632;BME280;58358;50.936;0.246;2023-02-10T02:38:24;103071.45;;;0.06;65.16
64632;BME280;58358;50.936;0.246;2023-02-10T02:40:50;103066.72;;;1.64;60.90
64632;BME280;58358;50.936;0.246;2023-02-10T02:43:16;103063.57;;;1.09;60.79
64632;BME280;58358;50.936;0.246;2023-02-10T02:45:49;103061.16;;;1.51;59.90
64632;BME280;58358;50.936;0.246;2023-02-10T02:48:25;103059.05;;;2.07;58.19
64632;BME280;58358;50.936;0.246;2023-02-10T02:50:35;103061.50;;;1.97;58.59
64632;BME280;58358;50.936;0.246;2023-02-10T02:53:07;103062.77;;;0.77;60.94
64632;BME280;58358;50.936;0.246;2023-02-10T02:55:29;103062.92;;;1.34;60.23
64632;BME280;58358;50.936;0.246;2023-02-10T02:57:50;103064.65;;;1.95;60.06
64632;BME280;58358;50.936;0.246;2023-02-10T03:00:16;103060.71;;;0.88;60.84
64632;BME280;58358;50.936;0.246;2023-02-10T03:02:40;103058.19;;;1.63;58.44
64632;BME280;58358;50.936;0.246;2023-02-10T03:05:04;103064.10;;;1.26;59.97
64632;BME280;58358;50.936;0.246;2023-02-10T03:07:29;103070.00;;;1.57;59.41
64632;BME280;58358;50.936;0.246;2023-02-10T03:09:54;103073.04;;;1.23;60.69
64632;BME280;58358;50.936;0.246;2023-02-10T03:12:20;103080.42;;;0.65;61.46
64632;BME280;58358;50.936;0.246;2023-02-10T03:14:46;103077.41;;;0.97;61.28
64632;BME280;58358;50.936;0.246;2023-02-10T03:17:10;103076.43;;;1.34;59.55
64632;BME280;58358;50.936;0.246;2023-02-10T03:19:36;103077.55;;;1.76;58.55
64632;BME280;58358;50.936;0.246;2023-02-10T03:22:02;103077.54;;;1.10;60.24
64632;BME280;58358;50.936;0.246;2023-02-10T03:24:27;103079.05;;;0.78;60.59
64632;BME280;58358;50.936;0.246;2023-02-10T03:26:53;103080.15;;;1.63;58.47
64632;BME280;58358;50.936;0.246;2023-02-10T03:29:18;103080.47;;;1.96;57.28
64632;BME280;58358;50.936;0.246;2023-02-10T03:31:43;103077.45;;;2.37;56.21
64632;BME280;58358;50.936;0.246;2023-02-10T03:34:10;103072.29;;;1.74;57.35
64632;BME280;58358;50.936;0.246;2023-02-10T03:36:34;103069.33;;;-0.12;61.48
64632;BME280;58358;50.936;0.246;2023-02-10T03:38:59;103065.65;;;1.15;59.77
64632;BME280;58358;50.936;0.246;2023-02-10T03:41:26;103069.59;;;0.30;60.43
64632;BME280;58358;50.936;0.246;2023-02-10T03:43:51;103060.17;;;1.35;59.69
64632;BME280;58358;50.936;0.246;2023-02-10T03:46:16;103055.78;;;-1.85;66.56
64632;BME280;58358;50.936;0.246;2023-02-10T03:48:42;103059.20;;;-0.48;67.42
64632;BME280;58358;50.936;0.246;2023-02-10T03:51:07;103051.71;;;1.48;60.12
64632;BME280;58358;50.936;0.246;2023-02-10T03:53:34;103054.12;;;-0.81;63.88
64632;BME280;58358;50.936;0.246;2023-02-10T03:55:58;103052.92;;;0.29;61.79
64632;BME280;58358;50.936;0.246;2023-02-10T03:58:24;103049.71;;;1.13;59.79
64632;BME280;58358;50.936;0.246;2023-02-10T04:00:49;103052.30;;;1.02;59.80
64632;BME280;58358;50.936;0.246;2023-02-10T04:03:15;103054.80;;;1.67;57.37
64632;BME280;58358;50.936;0.246;2023-02-10T04:05:39;103060.41;;;0.89;58.87
64632;BME280;58358;50.936;0.246;2023-02-10T04:08:06;103062.67;;;0.95;59.70
64632;BME280;58358;50.936;0.246;2023-02-10T04:10:30;103065.89;;;-0.89;64.89
64632;BME280;58358;50.936;0.246;2023-02-10T04:12:56;103070.55;;;0.80;61.79
64632;BME280;58358;50.936;0.246;2023-02-10T04:15:22;103073.12;;;0.09;64.40
64632;BME280;58358;50.936;0.246;2023-02-10T04:17:47;103071.63;;;-3.03;72.88
64632;BME280;58358;50.936;0.246;2023-02-10T04:20:13;103075.44;;;-0.87;69.81
64632;BME280;58358;50.936;0.246;2023-02-10T04:22:38;103084.45;;;-1.92;67.70
64632;BME280;58358;50.936;0.246;2023-02-10T04:25:04;103081.04;;;-0.96;68.49
64632;BME280;58358;50.936;0.246;2023-02-10T04:27:29;103079.83;;;-0.70;69.25
64632;BME280;58358;50.936;0.246;2023-02-10T04:29:54;103080.68;;;0.35;65.81
64632;BME280;58358;50.936;0.246;2023-02-10T04:32:19;103088.66;;;-0.22;67.17
64632;BME280;58358;50.936;0.246;2023-02-10T04:34:46;103085.39;;;1.13;62.92
64632;BME280;58358;50.936;0.246;2023-02-10T04:37:10;103080.16;;;1.47;62.03
64632;BME280;58358;50.936;0.246;2023-02-10T04:39:36;103078.94;;;1.23;62.20
64632;BME280;58358;50.936;0.246;2023-02-10T04:42:01;103079.93;;;1.13;61.59
64632;BME280;58358;50.936;0.246;2023-02-10T04:44:26;103072.02;;;0.52;63.15
64632;BME280;58358;50.936;0.246;2023-02-10T04:46:54;103065.21;;;0.87;62.79
64632;BME280;58358;50.936;0.246;2023-02-10T04:49:18;103079.53;;;-0.04;64.43
64632;BME280;58358;50.936;0.246;2023-02-10T04:51:44;103079.61;;;0.73;62.16
64632;BME280;58358;50.936;0.246;2023-02-10T04:54:10;103084.19;;;-0.13;65.41
64632;BME280;58358;50.936;0.246;2023-02-10T04:56:35;103077.30;;;-0.81;66.51
64632;BME280;58358;50.936;0.246;2023-02-10T04:59:02;103071.92;;;1.14;62.88
64632;BME280;58358;50.936;0.246;2023-02-10T05:01:26;103071.59;;;-0.12;66.22
64632;BME280;58358;50.936;0.246;2023-02-10T05:03:52;103068.68;;;0.80;62.75
64632;BME280;58358;50.936;0.246;2023-02-10T05:06:16;103066.38;;;-1.35;69.14
64632;BME280;58358;50.936;0.246;2023-02-10T05:08:42;103073.34;;;-0.03;67.93
64632;BME280;58358;50.936;0.246;2023-02-10T05:11:08;103075.43;;;-0.43;65.68
64632;BME280;58358;50.936;0.246;2023-02-10T05:13:34;103082.47;;;0.12;65.32
64632;BME280;58358;50.936;0.246;2023-02-10T05:15:59;103074.46;;;1.20;61.81
64632;BME280;58358;50.936;0.246;2023-02-10T05:18:25;103077.99;;;-0.87;68.05
64632;BME280;58358;50.936;0.246;2023-02-10T05:20:50;103088.19;;;0.29;63.30
64632;BME280;58358;50.936;0.246;2023-02-10T05:23:15;103086.15;;;0.11;64.38
64632;BME280;58358;50.936;0.246;2023-02-10T05:25:41;103071.78;;;0.07;65.17
64632;BME280;58358;50.936;0.246;2023-02-10T05:28:06;103068.02;;;-0.21;64.71
64632;BME280;58358;50.936;0.246;2023-02-10T05:30:32;103078.85;;;0.36;62.97
64632;BME280;58358;50.936;0.246;2023-02-10T05:32:58;103080.17;;;0.96;62.13
64632;BME280;58358;50.936;0.246;2023-02-10T05:35:23;103084.82;;;-1.77;66.37
64632;BME280;58358;50.936;0.246;2023-02-10T05:37:48;103087.90;;;-0.82;65.49
64632;BME280;58358;50.936;0.246;2023-02-10T05:40:14;103097.65;;;0.35;63.98
64632;BME280;58358;50.936;0.246;2023-02-10T05:42:39;103101.82;;;0.48;61.21
64632;BME280;58358;50.936;0.246;2023-02-10T05:45:04;103099.68;;;1.44;59.94
64632;BME280;58358;50.936;0.246;2023-02-10T05:47:29;103099.89;;;0.63;61.61
64632;BME280;58358;50.936;0.246;2023-02-10T05:49:54;103096.87;;;0.10;63.45
64632;BME280;58358;50.936;0.246;2023-02-10T05:52:19;103090.62;;;0.08;62.38
64632;BME280;58358;50.936;0.246;2023-02-10T05:54:45;103079.80;;;-1.41;66.67
64632;BME280;58358;50.936;0.246;2023-02-10T05:57:10;103079.37;;;0.05;63.35
64632;BME280;58358;50.936;0.246;2023-02-10T05:59:36;103076.37;;;-0.13;64.54
64632;BME280;58358;50.936;0.246;2023-02-10T06:02:01;103076.13;;;0.44;62.62
64632;BME280;58358;50.936;0.246;2023-02-10T06:04:27;103074.56;;;0.14;62.84
64632;BME280;58358;50.936;0.246;2023-02-10T06:06:52;103075.99;;;0.31;62.73
64632;BME280;58358;50.936;0.246;2023-02-10T06:09:18;103076.71;;;0.19;62.23
64632;BME280;58358;50.936;0.246;2023-02-10T06:11:44;103070.58;;;-1.24;64.57
64632;BME280;58358;50.936;0.246;2023-02-10T06:14:09;103077.52;;;0.10;62.17
64632;BME280;58358;50.936;0.246;2023-02-10T06:16:35;103083.85;;;-2.62;70.75
64632;BME280;58358;50.936;0.246;2023-02-10T06:18:59;103079.16;;;-0.70;67.30
64632;BME280;58358;50.936;0.246;2023-02-10T06:21:25;103069.43;;;-1.17;66.00
64632;BME280;58358;50.936;0.246;2023-02-10T06:23:51;103073.17;;;-2.79;70.93
64632;BME280;58358;50.936;0.246;2023-02-10T06:26:17;103075.99;;;-0.99;68.17
64632;BME280;58358;50.936;0.246;2023-02-10T06:28:41;103072.28;;;-0.50;66.45
64632;BME280;58358;50.936;0.246;2023-02-10T06:31:08;103077.67;;;-1.51;67.15
64632;BME280;58358;50.936;0.246;2023-02-10T06:33:32;103081.41;;;-2.38;69.75
64632;BME280;58358;50.936;0.246;2023-02-10T06:35:58;103086.53;;;-2.49;71.91
64632;BME280;58358;50.936;0.246;2023-02-10T06:38:23;103094.24;;;-0.97;68.21
64632;BME280;58358;50.936;0.246;2023-02-10T06:40:50;103101.40;;;-1.07;67.28
64632;BME280;58358;50.936;0.246;2023-02-10T06:43:14;103107.04;;;-1.33;65.99
64632;BME280;58358;50.936;0.246;2023-02-10T06:45:40;103105.96;;;-0.25;63.58
64632;BME280;58358;50.936;0.246;2023-02-10T06:48:05;103107.34;;;-0.56;64.14
64632;BME280;58358;50.936;0.246;2023-02-10T06:50:30;103111.24;;;-3.17;72.81
64632;BME280;58358;50.936;0.246;2023-02-10T06:52:56;103111.23;;;-1.45;70.86
64632;BME280;58358;50.936;0.246;2023-02-10T06:55:21;103111.90;;;-1.70;70.00
64632;BME280;58358;50.936;0.246;2023-02-10T06:57:47;103106.92;;;-1.73;70.47
64632;BME280;58358;50.936;0.246;2023-02-10T07:00:14;103105.74;;;-2.26;73.58
64632;BME280;58358;50.936;0.246;2023-02-10T07:02:37;103105.31;;;-3.39;76.53
64632;BME280;58358;50.936;0.246;2023-02-10T07:05:05;103109.27;;;-3.67;77.31
64632;BME280;58358;50.936;0.246;2023-02-10T07:07:28;103107.58;;;-2.38;72.59
64632;BME280;58358;50.936;0.246;2023-02-10T07:09:54;103101.66;;;-3.12;76.77
64632;BME280;58358;50.936;0.246;2023-02-10T07:12:20;103094.60;;;-2.93;76.03
64632;BME280;58358;50.936;0.246;2023-02-10T07:14:44;103092.01;;;-2.95;73.66
64632;BME280;58358;50.936;0.246;2023-02-10T07:17:09;103102.21;;;-1.08;68.89
64632;BME280;58358;50.936;0.246;2023-02-10T07:19:35;103112.70;;;-1.45;69.20
64632;BME280;58358;50.936;0.246;2023-02-10T07:22:02;103118.81;;;-2.69;72.57
64632;BME280;58358;50.936;0.246;2023-02-10T07:24:26;103124.37;;;-3.85;74.88
64632;BME280;58358;50.936;0.246;2023-02-10T07:26:51;103118.81;;;-1.75;72.60
64632;BME280;58358;50.936;0.246;2023-02-10T07:29:17;103104.46;;;-1.85;69.70
64632;BME280;58358;50.936;0.246;2023-02-10T07:31:43;103114.38;;;-4.15;76.68
64632;BME280;58358;50.936;0.246;2023-02-10T07:34:08;103114.12;;;-4.98;81.29
64632;BME280;58358;50.936;0.246;2023-02-10T07:36:33;103118.26;;;-2.78;77.05
64632;BME280;58358;50.936;0.246;2023-02-10T07:38:59;103127.42;;;-1.89;73.48
64632;BME280;58358;50.936;0.246;2023-02-10T07:41:25;103133.80;;;-1.94;74.24
64632;BME280;58358;50.936;0.246;2023-02-10T07:43:50;103141.95;;;-4.03;79.45
64632;BME280;58358;50.936;0.246;2023-02-10T07:46:15;103141.39;;;-3.78;77.46
64632;BME280;58358;50.936;0.246;2023-02-10T07:48:41;103138.33;;;-2.51;76.43
64632;BME280;58358;50.936;0.246;2023-02-10T07:51:06;103137.29;;;-2.36;76.43
64632;BME280;58358;50.936;0.246;2023-02-10T07:53:32;103138.41;;;-0.64;69.80
64632;BME280;58358;50.936;0.246;2023-02-10T07:55:58;103135.87;;;-0.34;67.38
64632;BME280;58358;50.936;0.246;2023-02-10T07:58:23;103137.84;;;-1.58;73.61
64632;BME280;58358;50.936;0.246;2023-02-10T08:00:48;103140.38;;;-2.21;73.13
64632;BME280;58358;50.936;0.246;2023-02-10T08:03:14;103149.89;;;-3.19;74.56
64632;BME280;58358;50.936;0.246;2023-02-10T08:05:39;103153.34;;;-2.20;74.92
64632;BME280;58358;50.936;0.246;2023-02-10T08:08:05;103156.14;;;-1.61;74.21
64632;BME280;58358;50.936;0.246;2023-02-10T08:10:30;103156.65;;;-1.42;73.28
64632;BME280;58358;50.936;0.246;2023-02-10T08:12:56;103161.18;;;-2.16;76.24
64632;BME280;58358;50.936;0.246;2023-02-10T08:15:21;103162.53;;;-1.06;72.52
64632;BME280;58358;50.936;0.246;2023-02-10T08:17:47;103161.52;;;-0.89;73.15
64632;BME280;58358;50.936;0.246;2023-02-10T08:20:12;103165.42;;;-1.71;74.85
64632;BME280;58358;50.936;0.246;2023-02-10T08:22:37;103169.36;;;-1.19;74.16
64632;BME280;58358;50.936;0.246;2023-02-10T08:25:04;103162.80;;;-2.06;75.71
64632;BME280;58358;50.936;0.246;2023-02-10T08:27:29;103164.90;;;-1.19;76.70
64632;BME280;58358;50.936;0.246;2023-02-10T08:29:57;103169.40;;;-1.59;78.01
64632;BME280;58358;50.936;0.246;2023-02-10T08:32:20;103167.38;;;-1.77;77.32
64632;BME280;58358;50.936;0.246;2023-02-10T08:34:46;103166.97;;;-0.46;74.45
64632;BME280;58358;50.936;0.246;2023-02-10T08:37:11;103169.73;;;-0.25;75.79
64632;BME280;58358;50.936;0.246;2023-02-10T08:39:36;103178.76;;;-2.41;80.88
64632;BME280;58358;50.936;0.246;2023-02-10T08:42:02;103181.51;;;-1.62;83.86
64632;BME280;58358;50.936;0.246;2023-02-10T08:44:28;103175.57;;;0.52;76.37
64632;BME280;58358;50.936;0.246;2023-02-10T08:46:53;103176.72;;;1.18;72.75
64632;BME280;58358;50.936;0.246;2023-02-10T08:49:19;103179.69;;;1.34;73.97
64632;BME280;58358;50.936;0.246;2023-02-10T08:51:46;103174.32;;;1.00;72.32
64632;BME280;58358;50.936;0.246;2023-02-10T08:54:10;103175.50;;;1.11;72.82
64632;BME280;58358;50.936;0.246;2023-02-10T08:56:35;103178.64;;;1.13;73.21
64632;BME280;58358;50.936;0.246;2023-02-10T08:59:02;103177.43;;;-0.22;81.94
64632;BME280;58358;50.936;0.246;2023-02-10T09:01:26;103179.63;;;1.15;77.47
64632;BME280;58358;50.936;0.246;2023-02-10T09:03:52;103177.33;;;2.31;75.59
64632;BME280;58358;50.936;0.246;2023-02-10T09:06:19;103172.77;;;2.47;75.07
64632;BME280;58358;50.936;0.246;2023-02-10T09:08:43;103172.60;;;1.36;77.10
64632;BME280;58358;50.936;0.246;2023-02-10T09:11:09;103177.05;;;2.88;74.91
64632;BME280;58358;50.936;0.246;2023-02-10T09:13:33;103172.27;;;3.57;73.25
64632;BME280;58358;50.936;0.246;2023-02-10T09:15:58;103162.36;;;3.68;72.37
64632;BME280;58358;50.936;0.246;2023-02-10T09:18:24;103159.19;;;3.88;71.38
64632;BME280;58358;50.936;0.246;2023-02-10T09:20:49;103161.03;;;4.28;71.12
64632;BME280;58358;50.936;0.246;2023-02-10T09:23:15;103165.03;;;4.69;70.48
64632;BME280;58358;50.936;0.246;2023-02-10T09:25:40;103166.04;;;3.99;70.56
64632;BME280;58358;50.936;0.246;2023-02-10T09:28:05;103165.57;;;4.24;72.27
64632;BME280;58358;50.936;0.246;2023-02-10T09:30:30;103165.23;;;3.66;73.84
64632;BME280;58358;50.936;0.246;2023-02-10T09:32:56;103162.53;;;4.34;73.59
64632;BME280;58358;50.936;0.246;2023-02-10T09:35:21;103164.75;;;4.81;71.33
64632;BME280;58358;50.936;0.246;2023-02-10T09:37:47;103163.74;;;4.20;70.21
64632;BME280;58358;50.936;0.246;2023-02-10T09:40:16;103161.39;;;3.87;72.03
64632;BME280;58358;50.936;0.246;2023-02-10T09:42:50;103162.99;;;2.31;74.67
64632;BME280;58358;50.936;0.246;2023-02-10T09:45:09;103163.61;;;3.67;73.67
64632;BME280;58358;50.936;0.246;2023-02-10T09:47:38;103168.40;;;3.44;74.52
64632;BME280;58358;50.936;0.246;2023-02-10T09:50:07;103170.03;;;4.06;72.79
64632;BME280;58358;50.936;0.246;2023-02-10T09:52:32;103176.48;;;3.74;72.25
64632;BME280;58358;50.936;0.246;2023-02-10T09:54:46;103172.18;;;4.46;71.90
64632;BME280;58358;50.936;0.246;2023-02-10T09:57:13;103167.09;;;3.26;74.28
64632;BME280;58358;50.936;0.246;2023-02-10T09:59:37;103158.55;;;4.69;70.03
64632;BME280;58358;50.936;0.246;2023-02-10T10:02:11;103159.82;;;4.14;68.22
64632;BME280;58358;50.936;0.246;2023-02-10T10:04:29;103159.34;;;4.96;68.03
64632;BME280;58358;50.936;0.246;2023-02-10T10:06:56;103158.61;;;4.93;66.38
64632;BME280;58358;50.936;0.246;2023-02-10T10:09:30;103156.23;;;4.79;66.75
64632;BME280;58358;50.936;0.246;2023-02-10T10:11:46;103158.38;;;3.81;67.54
64632;BME280;58358;50.936;0.246;2023-02-10T10:14:16;103163.42;;;3.49;70.87
64632;BME280;58358;50.936;0.246;2023-02-10T10:16:56;103165.16;;;5.00;65.15
64632;BME280;58358;50.936;0.246;2023-02-10T10:19:08;103159.39;;;3.46;67.66
64632;BME280;58358;50.936;0.246;2023-02-10T10:21:31;103164.94;;;4.36;66.11
64632;BME280;58358;50.936;0.246;2023-02-10T10:24:04;103162.93;;;3.81;69.09
64632;BME280;58358;50.936;0.246;2023-02-10T10:26:29;103168.63;;;3.17;71.32
64632;BME280;58358;50.936;0.246;2023-02-10T10:28:50;103172.20;;;2.56;73.77
64632;BME280;58358;50.936;0.246;2023-02-10T10:31:13;103177.32;;;2.93;74.06
64632;BME280;58358;50.936;0.246;2023-02-10T10:33:38;103179.33;;;2.96;71.68
64632;BME280;58358;50.936;0.246;2023-02-10T10:35:59;103183.49;;;4.09;69.71
64632;BME280;58358;50.936;0.246;2023-02-10T10:38:30;103190.46;;;3.46;69.95
64632;BME280;58358;50.936;0.246;2023-02-10T10:40:53;103183.98;;;3.42;71.76
64632;BME280;58358;50.936;0.246;2023-02-10T10:43:20;103184.46;;;2.97;73.92
64632;BME280;58358;50.936;0.246;2023-02-10T10:45:45;103186.73;;;3.04;74.10
64632;BME280;58358;50.936;0.246;2023-02-10T10:48:09;103182.50;;;4.01;70.46
64632;BME280;58358;50.936;0.246;2023-02-10T10:50:32;103186.37;;;4.41;68.65
64632;BME280;58358;50.936;0.246;2023-02-10T10:52:58;103187.40;;;3.90;70.56
64632;BME280;58358;50.936;0.246;2023-02-10T10:55:30;103183.04;;;3.26;72.50
64632;BME280;58358;50.936;0.246;2023-02-10T10:57:49;103183.83;;;3.59;72.72
64632;BME280;58358;50.936;0.246;2023-02-10T11:00:19;103178.72;;;2.95;72.92
64632;BME280;58358;50.936;0.246;2023-02-10T11:02:52;103176.85;;;2.98;73.84
64632;BME280;58358;50.936;0.246;2023-02-10T11:05:11;103171.04;;;3.71;71.37
64632;BME280;58358;50.936;0.246;2023-02-10T11:07:32;103172.81;;;3.65;73.03
64632;BME280;58358;50.936;0.246;2023-02-10T11:09:56;103171.73;;;2.87;73.24
64632;BME280;58358;50.936;0.246;2023-02-10T11:12:24;103165.40;;;3.24;72.59
64632;BME280;58358;50.936;0.246;2023-02-10T11:14:49;103161.15;;;3.22;74.46
64632;BME280;58358;50.936;0.246;2023-02-10T11:17:20;103165.99;;;2.94;74.56
64632;BME280;58358;50.936;0.246;2023-02-10T11:19:39;103158.91;;;2.83;74.29
64632;BME280;58358;50.936;0.246;2023-02-10T11:22:13;103149.84;;;3.52;70.78
64632;BME280;58358;50.936;0.246;2023-02-10T11:24:31;103147.55;;;3.46;72.44
64632;BME280;58358;50.936;0.246;2023-02-10T11:26:58;103149.61;;;2.99;72.41
64632;BME280;58358;50.936;0.246;2023-02-10T11:29:20;103148.28;;;3.54;71.13
64632;BME280;58358;50.936;0.246;2023-02-10T11:31:46;103146.63;;;3.47;71.01
64632;BME280;58358;50.936;0.246;2023-02-10T11:34:20;103144.53;;;3.85;69.18
64632;BME280;58358;50.936;0.246;2023-02-10T11:36:39;103143.25;;;3.64;67.85
64632;BME280;58358;50.936;0.246;2023-02-10T11:39:14;103153.57;;;4.66;65.45
64632;BME280;58358;50.936;0.246;2023-02-10T11:41:30;103155.07;;;4.99;64.64
64632;BME280;58358;50.936;0.246;2023-02-10T11:43:54;103153.49;;;4.78;64.72
64632;BME280;58358;50.936;0.246;2023-02-10T11:46:24;103148.69;;;4.29;65.24
64632;BME280;58358;50.936;0.246;2023-02-10T11:48:52;103143.37;;;4.25;66.45
64632;BME280;58358;50.936;0.246;2023-02-10T11:51:15;103140.90;;;4.42;65.30
64632;BME280;58358;50.936;0.246;2023-02-10T11:53:38;103136.65;;;4.99;62.37
64632;BME280;58358;50.936;0.246;2023-02-10T11:56:12;103132.26;;;4.54;63.04
64632;BME280;58358;50.936;0.246;2023-02-10T11:58:43;103131.15;;;4.36;65.32
64632;BME280;58358;50.936;0.246;2023-02-10T12:01:01;103129.17;;;4.10;66.33
64632;BME280;58358;50.936;0.246;2023-02-10T12:03:35;103131.46;;;4.68;64.49
64632;BME280;58358;50.936;0.246;2023-02-10T12:05:52;103132.75;;;4.74;64.47
64632;BME280;58358;50.936;0.246;2023-02-10T12:08:20;103127.77;;;4.56;65.00
64632;BME280;58358;50.936;0.246;2023-02-10T12:10:44;103121.15;;;4.32;64.46
64632;BME280;58358;50.936;0.246;2023-02-10T12:13:12;103119.28;;;4.49;63.89
64632;BME280;58358;50.936;0.246;2023-02-10T12:15:35;103106.90;;;4.80;63.71
64632;BME280;58358;50.936;0.246;2023-02-10T12:18:03;103114.28;;;4.57;63.62
64632;BME280;58358;50.936;0.246;2023-02-10T12:20:31;103115.64;;;4.75;62.45
64632;BME280;58358;50.936;0.246;2023-02-10T12:25:17;103100.12;;;5.52;60.35
64632;BME280;58358;50.936;0.246;2023-02-10T12:27:47;103097.44;;;4.82;60.97
64632;BME280;58358;50.936;0.246;2023-02-10T12:30:10;103101.21;;;4.45;62.17
64632;BME280;58358;50.936;0.246;2023-02-10T12:32:36;103096.14;;;4.61;61.29
64632;BME280;58358;50.936;0.246;2023-02-10T12:37:31;103093.86;;;4.40;61.60
64632;BME280;58358;50.936;0.246;2023-02-10T12:39:49;103085.82;;;5.11;59.88
64632;BME280;58358;50.936;0.246;2023-02-10T12:42:26;103083.50;;;5.27;57.99
64632;BME280;58358;50.936;0.246;2023-02-10T12:44:46;103087.42;;;4.90;58.61
64632;BME280;58358;50.936;0.246;2023-02-10T12:47:11;103078.59;;;4.58;57.77
64632;BME280;58358;50.936;0.246;2023-02-10T12:49:37;103079.02;;;5.44;56.03
64632;BME280;58358;50.936;0.246;2023-02-10T12:52:00;103073.21;;;4.73;56.97
64632;BME280;58358;50.936;0.246;2023-02-10T12:54:23;103075.79;;;4.67;59.00
64632;BME280;58358;50.936;0.246;2023-02-10T12:56:47;103072.55;;;5.11;58.34
64632;BME280;58358;50.936;0.246;2023-02-10T12:59:15;103068.97;;;4.95;57.12